createdAt,value
2018-06-03T00:00:11.929Z,99.90
2018-06-03T00:02:40.555Z,99.90
2018-06-03T00:05:09.243Z,99.90
2018-06-03T00:07:37.922Z,99.90
2018-06-03T00:10:06.619Z,99.90
2018-06-03T00:12:35.282Z,99.90
2018-06-03T00:15:04.006Z,99.90
2018-06-03T00:17:32.679Z,99.90
2018-06-03T00:20:01.309Z,99.90
2018-06-03T00:22:32.093Z,99.90
2018-06-03T00:25:00.795Z,99.90
2018-06-03T00:29:57.797Z,99.90
2018-06-03T00:32:26.446Z,99.90
2018-06-03T00:34:55.126Z,99.90
2018-06-03T00:37:23.762Z,99.90
2018-06-03T00:39:52.407Z,99.90
2018-06-03T00:42:21.090Z,99.90
2018-06-03T00:44:49.731Z,99.90
2018-06-03T00:47:18.423Z,99.90
2018-06-03T00:49:47.086Z,99.90
2018-06-03T00:52:15.755Z,99.90
2018-06-03T00:54:44.437Z,99.90
2018-06-03T00:57:13.081Z,99.90
2018-06-03T00:59:41.771Z,99.90
2018-06-03T01:02:10.435Z,99.90
2018-06-03T01:04:39.073Z,99.90
2018-06-03T01:07:07.777Z,99.90
2018-06-03T01:09:36.458Z,99.90
2018-06-03T01:12:05.182Z,99.90
2018-06-03T01:14:33.816Z,99.90
2018-06-03T01:17:02.467Z,99.90
2018-06-03T01:19:31.157Z,99.90
2018-06-03T01:24:28.137Z,99.90
2018-06-03T01:26:56.809Z,99.90
2018-06-03T01:29:25.485Z,99.90
2018-06-03T01:31:54.207Z,99.90
2018-06-03T01:34:22.870Z,99.90
2018-06-03T01:36:51.584Z,99.90
2018-06-03T01:42:13.774Z,99.90
2018-06-03T01:44:42.434Z,99.90
2018-06-03T01:47:11.076Z,99.90
2018-06-03T01:52:08.006Z,99.90
2018-06-03T01:54:36.673Z,99.90
2018-06-03T01:57:05.600Z,99.90
2018-06-03T01:59:34.244Z,99.90
2018-06-03T02:02:02.921Z,99.90
2018-06-03T02:04:31.579Z,99.90
2018-06-03T02:07:00.249Z,99.90
2018-06-03T02:09:28.872Z,99.90
2018-06-03T02:11:57.524Z,99.90
2018-06-03T02:14:26.209Z,99.90
2018-06-03T02:19:23.153Z,99.90
2018-06-03T02:21:51.833Z,99.90
2018-06-03T02:24:20.478Z,99.90
2018-06-03T02:26:49.140Z,99.90
2018-06-03T02:29:17.778Z,99.90
2018-06-03T02:31:46.519Z,99.90
2018-06-03T02:34:15.157Z,99.90
2018-06-03T02:36:43.782Z,99.90
2018-06-03T02:39:12.803Z,99.90
2018-06-03T02:41:41.453Z,99.90
2018-06-03T02:44:10.124Z,99.90
2018-06-03T02:46:38.822Z,99.90
2018-06-03T02:49:07.492Z,99.90
2018-06-03T02:51:36.146Z,99.90
2018-06-03T02:54:04.809Z,99.90
2018-06-03T02:56:33.475Z,99.90
2018-06-03T02:59:02.134Z,99.90
2018-06-03T03:01:30.817Z,99.90
2018-06-03T03:03:59.450Z,99.90
2018-06-03T03:06:28.097Z,99.90
2018-06-03T03:08:56.736Z,99.90
2018-06-03T03:11:25.401Z,99.90
2018-06-03T03:13:54.049Z,99.90
2018-06-03T03:16:22.755Z,99.90
2018-06-03T03:18:51.385Z,99.90
2018-06-03T03:21:20.037Z,99.90
2018-06-03T03:23:48.695Z,99.90
2018-06-03T03:26:17.345Z,99.90
2018-06-03T03:28:46.006Z,99.90
2018-06-03T03:31:14.641Z,99.90
2018-06-03T03:33:43.301Z,99.90
2018-06-03T03:36:11.944Z,99.90
2018-06-03T03:38:40.571Z,99.90
2018-06-03T03:41:09.235Z,99.90
2018-06-03T03:43:51.309Z,99.90
2018-06-03T03:46:19.979Z,99.90
2018-06-03T03:48:48.614Z,99.90
2018-06-03T03:51:31.714Z,99.90
2018-06-03T03:54:00.363Z,99.90
2018-06-03T03:56:28.995Z,99.90
2018-06-03T03:58:57.664Z,99.90
2018-06-03T04:01:26.305Z,99.90
2018-06-03T04:09:46.293Z,99.90
2018-06-03T04:12:14.949Z,99.90
2018-06-03T04:14:43.590Z,99.90
2018-06-03T04:17:12.269Z,99.90
2018-06-03T04:19:40.923Z,99.90
2018-06-03T04:22:09.622Z,99.90
2018-06-03T04:24:38.275Z,99.90
2018-06-03T04:27:06.978Z,99.90
2018-06-03T04:29:35.604Z,99.90
2018-06-03T04:32:04.260Z,99.90
2018-06-03T04:34:32.936Z,99.90
2018-06-03T04:37:01.598Z,99.90
2018-06-03T04:39:30.272Z,99.90
2018-06-03T04:41:58.914Z,99.90
2018-06-03T04:44:27.586Z,99.90
2018-06-03T04:46:56.251Z,99.90
2018-06-03T04:49:24.932Z,99.90
2018-06-03T04:51:53.598Z,99.90
2018-06-03T04:54:22.260Z,99.90
2018-06-03T04:56:50.941Z,99.90
2018-06-03T04:59:19.576Z,99.90
2018-06-03T05:01:48.234Z,99.90
2018-06-03T05:04:16.877Z,99.90
2018-06-03T05:06:45.528Z,99.90
2018-06-03T05:09:14.219Z,99.90
2018-06-03T05:11:42.909Z,99.90
2018-06-03T05:14:11.576Z,99.90
2018-06-03T05:16:40.224Z,99.90
2018-06-03T05:19:08.897Z,99.90
2018-06-03T05:21:37.576Z,99.90
2018-06-03T05:24:06.241Z,99.90
2018-06-03T05:26:35.074Z,99.90
2018-06-03T05:29:03.837Z,99.90
2018-06-03T05:31:32.580Z,99.90
2018-06-03T05:34:01.284Z,99.90
2018-06-03T05:36:30.045Z,99.90
2018-06-03T05:38:58.758Z,99.90
2018-06-03T05:41:27.406Z,99.90
2018-06-03T05:43:56.046Z,99.90
2018-06-03T05:46:24.937Z,99.90
2018-06-03T05:48:53.585Z,99.90
2018-06-03T05:51:22.225Z,99.90
2018-06-03T05:53:54.343Z,99.90
2018-06-03T05:56:23.024Z,99.90
2018-06-03T05:58:51.701Z,99.90
2018-06-03T06:01:20.320Z,99.90
2018-06-03T06:03:48.968Z,99.90
2018-06-03T06:06:17.681Z,99.90
2018-06-03T06:08:46.362Z,99.90
2018-06-03T06:11:15.059Z,99.90
2018-06-03T06:13:43.700Z,99.90
2018-06-03T06:16:12.394Z,99.90
2018-06-03T06:18:41.062Z,99.90
2018-06-03T06:21:09.741Z,99.90
2018-06-03T06:23:38.493Z,99.90
2018-06-03T06:26:07.153Z,99.90
2018-06-03T06:28:35.772Z,99.90
2018-06-03T06:31:04.455Z,99.90
2018-06-03T06:33:33.114Z,99.90
2018-06-03T06:36:01.804Z,99.90
2018-06-03T06:38:30.470Z,99.90
2018-06-03T06:40:59.131Z,99.90
2018-06-03T06:43:27.790Z,99.90
2018-06-03T06:46:18.691Z,99.90
2018-06-03T06:48:47.362Z,99.90
2018-06-03T06:51:16.017Z,99.90
2018-06-03T06:53:45.516Z,99.90
2018-06-03T06:56:14.218Z,99.90
2018-06-03T06:58:42.941Z,99.90
2018-06-03T07:01:11.631Z,99.90
2018-06-03T07:03:40.315Z,99.90
2018-06-03T07:06:08.977Z,99.90
2018-06-03T07:08:37.736Z,99.90
2018-06-03T07:13:34.677Z,99.90
2018-06-03T07:16:03.373Z,99.90
2018-06-03T07:18:32.040Z,99.90
2018-06-03T07:21:00.691Z,99.90
2018-06-03T07:23:29.331Z,99.90
2018-06-03T07:25:58.395Z,99.90
2018-06-03T07:28:27.053Z,99.90
2018-06-03T07:30:55.843Z,99.90
2018-06-03T07:33:24.518Z,99.90
2018-06-03T07:35:53.200Z,99.90
2018-06-03T07:38:22.057Z,99.90
2018-06-03T07:40:50.690Z,99.90
2018-06-03T07:43:19.343Z,99.90
2018-06-03T07:45:48.162Z,99.90
2018-06-03T07:48:17.299Z,99.90
2018-06-03T07:50:46.889Z,99.90
2018-06-03T07:53:15.758Z,99.90
2018-06-03T07:55:44.405Z,99.90
2018-06-03T07:58:13.146Z,99.90
2018-06-03T08:00:42.209Z,99.90
2018-06-03T08:03:10.921Z,99.90
2018-06-03T08:05:39.633Z,99.90
2018-06-03T08:08:08.296Z,99.90
2018-06-03T08:10:37.015Z,99.90
2018-06-03T08:13:05.714Z,99.90
2018-06-03T08:15:34.361Z,99.90
2018-06-03T08:18:03.020Z,99.90
2018-06-03T08:20:31.725Z,99.90
2018-06-03T08:23:00.345Z,99.90
2018-06-03T08:25:29.048Z,99.90
2018-06-03T08:27:57.689Z,99.90
2018-06-03T08:30:26.364Z,99.90
2018-06-03T08:32:54.999Z,99.90
2018-06-03T08:35:23.683Z,99.90
2018-06-03T08:37:52.329Z,99.90
2018-06-03T08:40:20.986Z,99.90
2018-06-03T08:42:49.629Z,99.90
2018-06-03T08:45:18.292Z,99.90
2018-06-03T08:47:46.950Z,99.90
2018-06-03T08:50:15.594Z,99.90
2018-06-03T08:52:44.267Z,99.90
2018-06-03T08:55:12.931Z,99.90
2018-06-03T08:57:41.613Z,99.90
2018-06-03T09:00:10.275Z,99.90
2018-06-03T09:02:38.928Z,99.90
2018-06-03T09:05:07.618Z,99.90
2018-06-03T09:07:36.274Z,99.90
2018-06-03T09:10:05.765Z,99.90
2018-06-03T09:12:34.451Z,99.90
2018-06-03T09:15:03.081Z,99.90
2018-06-03T09:17:31.737Z,99.90
2018-06-03T09:20:00.405Z,99.90
2018-06-03T09:22:29.095Z,99.90
2018-06-03T09:24:57.769Z,99.90
2018-06-03T09:30:19.041Z,99.90
2018-06-03T09:32:48.879Z,99.90
2018-06-03T09:35:17.556Z,99.90
2018-06-03T09:37:46.213Z,99.90
2018-06-03T09:40:14.854Z,99.90
2018-06-03T09:42:43.551Z,99.90
2018-06-03T09:45:12.194Z,99.90
2018-06-03T09:47:40.821Z,99.90
2018-06-03T09:50:09.576Z,99.90
2018-06-03T09:52:38.215Z,99.90
2018-06-03T09:55:06.934Z,99.90
2018-06-03T09:57:35.618Z,99.90
2018-06-03T10:00:04.551Z,99.90
2018-06-03T10:02:33.197Z,99.90
2018-06-03T10:05:01.855Z,99.90
2018-06-03T10:07:30.543Z,99.90
2018-06-03T10:09:59.215Z,99.90
2018-06-03T10:12:27.898Z,99.90
2018-06-03T10:14:56.571Z,99.90
2018-06-03T10:17:25.323Z,99.90
2018-06-03T10:19:53.985Z,99.90
2018-06-03T10:22:22.644Z,99.90
2018-06-03T10:27:19.703Z,99.90
2018-06-03T10:32:41.091Z,99.90
2018-06-03T10:35:09.817Z,99.90
2018-06-03T10:37:38.432Z,99.90
2018-06-03T10:42:35.402Z,99.90
2018-06-03T10:45:04.178Z,99.90
2018-06-03T10:47:32.885Z,99.90
2018-06-03T10:50:01.556Z,99.90
2018-06-03T10:54:58.737Z,99.90
2018-06-03T10:57:37.429Z,99.90
2018-06-03T11:00:06.417Z,99.90
2018-06-03T11:05:29.446Z,99.90
2018-06-03T11:07:58.208Z,99.10
2018-06-03T11:10:27.043Z,99.90
2018-06-03T11:12:55.795Z,99.50
2018-06-03T11:15:29.305Z,97.90
2018-06-03T11:18:08.380Z,97.80
2018-06-03T11:20:37.438Z,97.80
2018-06-03T11:23:06.161Z,98.30
2018-06-03T11:25:42.419Z,98.40
2018-06-03T11:28:11.062Z,98.20
2018-06-03T11:30:39.841Z,99.40
2018-06-03T11:33:08.518Z,99.70
2018-06-03T11:35:37.231Z,99.80
2018-06-03T11:38:05.925Z,99.70
2018-06-03T11:40:34.629Z,99.00
2018-06-03T11:43:03.273Z,98.40
2018-06-03T11:45:31.993Z,98.70
2018-06-03T11:48:00.650Z,96.20
2018-06-03T11:50:30.372Z,97.40
2018-06-03T11:53:02.847Z,97.50
2018-06-03T11:55:31.516Z,96.60
2018-06-03T11:58:41.761Z,96.40
2018-06-03T12:01:10.624Z,95.80
2018-06-03T12:03:39.312Z,94.80
2018-06-03T12:06:08.133Z,97.60
2018-06-03T12:08:36.893Z,97.00
2018-06-03T12:11:05.596Z,96.40
2018-06-03T12:16:02.583Z,95.10
2018-06-03T12:18:31.289Z,95.30
2018-06-03T12:21:00.014Z,95.30
2018-06-03T12:23:28.710Z,94.20
2018-06-03T12:26:03.517Z,93.30
2018-06-03T12:28:46.576Z,93.30
2018-06-03T12:31:15.367Z,93.40
2018-06-03T12:33:49.699Z,92.40
2018-06-03T12:36:18.427Z,92.00
2018-06-03T12:38:48.373Z,91.50
2018-06-03T12:41:17.122Z,91.80
2018-06-03T12:43:45.809Z,92.20
2018-06-03T12:46:33.838Z,93.10
2018-06-03T12:49:18.406Z,93.50
2018-06-03T12:51:47.074Z,93.30
2018-06-03T12:54:15.756Z,93.10
2018-06-03T12:59:53.018Z,92.80
2018-06-03T13:02:21.695Z,90.80
2018-06-03T13:04:50.374Z,90.20
2018-06-03T13:07:19.049Z,89.30
2018-06-03T13:09:47.727Z,86.40
2018-06-03T13:12:16.384Z,84.80
2018-06-03T13:14:46.213Z,86.20
2018-06-03T13:17:14.897Z,85.50
2018-06-03T13:20:01.582Z,86.20
2018-06-03T13:22:30.249Z,86.20
2018-06-03T13:24:58.934Z,83.80
2018-06-03T13:27:27.622Z,83.60
2018-06-03T13:29:56.284Z,83.90
2018-06-03T13:32:24.976Z,86.80
2018-06-03T13:34:53.701Z,83.60
2018-06-03T13:37:22.351Z,83.90
2018-06-03T13:39:51.161Z,86.30
2018-06-03T13:42:19.820Z,85.30
2018-06-03T13:44:48.547Z,85.00
2018-06-03T13:47:17.223Z,81.80
2018-06-03T13:49:45.861Z,80.50
2018-06-03T13:52:14.657Z,80.10
2018-06-03T13:57:16.318Z,77.20
2018-06-03T13:59:45.027Z,80.60
2018-06-03T14:02:13.713Z,77.00
2018-06-03T14:04:43.488Z,78.40
2018-06-03T14:07:13.226Z,74.00
2018-06-03T14:14:38.620Z,72.30
2018-06-03T14:17:07.381Z,73.30
2018-06-03T14:19:36.108Z,75.90
2018-06-03T14:22:12.245Z,73.30
2018-06-03T14:24:40.962Z,71.90
2018-06-03T14:27:09.645Z,72.10
2018-06-03T14:29:39.317Z,70.60
2018-06-03T14:32:11.991Z,73.80
2018-06-03T14:34:40.669Z,72.20
2018-06-03T14:37:09.310Z,72.40
2018-06-03T14:39:38.069Z,70.80
2018-06-03T14:42:06.780Z,72.80
2018-06-03T14:44:35.435Z,71.50
2018-06-03T14:47:04.084Z,70.80
2018-06-03T14:49:50.180Z,71.40
2018-06-03T14:55:21.980Z,70.50
2018-06-03T14:57:50.697Z,71.00
2018-06-03T15:00:19.332Z,71.90
2018-06-03T15:02:48.022Z,73.40
2018-06-03T15:05:16.704Z,73.80
2018-06-03T15:07:45.394Z,74.30
2018-06-03T15:10:14.082Z,75.00
2018-06-03T15:12:42.748Z,75.30
2018-06-03T15:15:15.070Z,74.90
2018-06-03T15:20:12.109Z,74.20
2018-06-03T15:22:40.794Z,73.10
2018-06-03T15:25:09.460Z,74.20
2018-06-03T15:27:44.919Z,72.30
2018-06-03T15:30:14.545Z,72.30
2018-06-03T15:32:43.192Z,70.30
2018-06-03T15:35:11.965Z,71.00
2018-06-03T15:37:46.711Z,71.60
2018-06-03T15:40:25.520Z,68.80
2018-06-03T15:42:54.233Z,69.00
2018-06-03T15:45:29.077Z,67.50
2018-06-03T15:47:59.242Z,65.90
2018-06-03T15:50:27.942Z,65.60
2018-06-03T15:53:03.738Z,64.00
2018-06-03T15:55:37.319Z,65.60
2018-06-03T16:01:00.434Z,66.20
2018-06-03T16:09:25.701Z,63.40
2018-06-03T16:20:23.531Z,62.10
2018-06-03T16:25:45.509Z,64.20
2018-06-03T16:28:16.531Z,61.00
2018-06-03T16:30:45.299Z,63.60
2018-06-03T16:33:13.945Z,61.70
2018-06-03T16:35:42.625Z,60.70
2018-06-03T16:38:11.257Z,66.00
2018-06-03T16:40:39.992Z,61.90
2018-06-03T16:43:08.651Z,62.80
2018-06-03T16:45:37.307Z,62.30
2018-06-03T16:48:06.108Z,62.70
2018-06-03T16:50:38.217Z,62.70
2018-06-03T16:53:06.877Z,62.70
2018-06-03T16:55:35.519Z,62.10
2018-06-03T16:58:04.194Z,62.50
2018-06-03T17:00:32.867Z,63.70
2018-06-03T17:03:01.538Z,63.00
2018-06-03T17:05:48.735Z,61.00
2018-06-03T17:08:17.357Z,63.00
2018-06-03T17:10:46.011Z,63.20
2018-06-03T17:13:14.666Z,63.20
2018-06-03T17:15:43.285Z,63.10
2018-06-03T17:18:28.171Z,63.50
2018-06-03T17:20:56.895Z,65.40
2018-06-03T17:23:25.534Z,65.00
2018-06-03T17:25:54.205Z,65.90
2018-06-03T17:28:22.814Z,64.40
2018-06-03T17:30:51.663Z,65.30
2018-06-03T17:33:30.992Z,68.70
2018-06-03T17:36:07.879Z,70.40
2018-06-03T17:38:36.503Z,70.00
2018-06-03T17:41:05.452Z,71.30
2018-06-03T17:43:34.113Z,71.60
2018-06-03T17:46:02.784Z,73.40
2018-06-03T17:48:31.475Z,72.70
2018-06-03T17:51:00.385Z,75.90
2018-06-03T17:53:29.037Z,77.70
2018-06-03T17:55:58.729Z,77.00
2018-06-03T17:58:27.360Z,76.00
2018-06-03T18:00:56.044Z,79.20
2018-06-03T18:03:24.780Z,77.00
2018-06-03T18:05:53.477Z,77.50
2018-06-03T18:08:22.189Z,78.80
2018-06-03T18:10:50.888Z,82.40
2018-06-03T18:13:26.624Z,80.20
2018-06-03T18:15:55.341Z,80.70
2018-06-03T18:18:29.797Z,84.70
2018-06-03T18:23:56.437Z,81.50
2018-06-03T18:26:25.107Z,81.60
2018-06-03T18:28:53.829Z,81.60
2018-06-03T18:31:30.181Z,81.70
2018-06-03T18:34:04.909Z,84.00
2018-06-03T18:39:19.940Z,84.10
2018-06-03T18:41:48.624Z,83.80
2018-06-03T18:44:17.293Z,83.50
2018-06-03T18:46:46.046Z,87.80
2018-06-03T18:49:14.690Z,86.90
2018-06-03T18:51:47.169Z,86.00
2018-06-03T18:54:17.664Z,85.30
2018-06-03T18:56:46.424Z,87.20
2018-06-03T18:59:15.193Z,85.00
2018-06-03T19:04:36.551Z,88.90
2018-06-03T19:07:06.313Z,88.60
2018-06-03T19:09:34.957Z,90.60
2018-06-03T19:12:03.737Z,89.50
2018-06-03T19:14:32.411Z,87.80
2018-06-03T19:17:10.540Z,90.50
2018-06-03T19:19:39.222Z,93.10
2018-06-03T19:24:42.455Z,91.80
2018-06-03T19:27:11.123Z,96.20
2018-06-03T19:29:39.797Z,93.90
2018-06-03T19:32:08.454Z,97.40
2018-06-03T19:34:37.097Z,99.30
2018-06-03T19:37:05.808Z,99.90
2018-06-03T19:39:34.478Z,99.90
2018-06-03T19:42:03.154Z,99.90
2018-06-03T19:44:31.965Z,99.90
2018-06-03T19:47:00.631Z,99.90
2018-06-03T19:49:29.313Z,99.90
2018-06-03T19:51:58.004Z,99.90
2018-06-03T19:54:26.660Z,99.90
2018-06-03T19:56:55.333Z,99.90
2018-06-03T19:59:23.984Z,99.90
2018-06-03T20:01:59.105Z,99.90
2018-06-03T20:04:27.769Z,99.90
2018-06-03T20:06:57.261Z,99.90
2018-06-03T20:09:25.928Z,99.90
2018-06-03T20:11:54.611Z,99.90
2018-06-03T20:17:01.099Z,99.90
2018-06-03T20:19:29.760Z,99.90
2018-06-03T20:22:17.710Z,99.90
2018-06-03T20:24:46.336Z,99.90
2018-06-03T20:27:15.017Z,99.90
2018-06-03T20:29:43.644Z,99.90
2018-06-03T20:32:12.312Z,99.90
2018-06-03T20:34:40.970Z,99.90
2018-06-03T20:37:09.624Z,99.90
2018-06-03T20:39:38.300Z,99.90
2018-06-03T20:42:06.965Z,99.90
2018-06-03T20:44:35.635Z,99.90
2018-06-03T20:47:04.302Z,99.90
2018-06-03T20:49:33.028Z,99.90
2018-06-03T20:52:01.716Z,99.90
2018-06-03T20:54:30.380Z,99.90
2018-06-03T20:56:59.020Z,99.90
2018-06-03T21:01:55.941Z,99.90
2018-06-03T21:04:24.624Z,99.90
2018-06-03T21:06:53.240Z,99.90
2018-06-03T21:09:21.873Z,99.90
2018-06-03T21:14:44.682Z,99.90
2018-06-03T21:17:13.334Z,99.90
2018-06-03T21:19:41.963Z,99.90
2018-06-03T21:22:10.615Z,99.90
2018-06-03T21:24:39.270Z,99.90
2018-06-03T21:27:07.918Z,99.90
2018-06-03T21:29:58.797Z,99.90
2018-06-03T21:32:27.442Z,99.90
2018-06-03T21:34:56.126Z,99.90
2018-06-03T21:37:24.770Z,99.90
2018-06-03T21:39:53.455Z,99.90
2018-06-03T21:42:22.112Z,99.90
2018-06-03T21:44:50.788Z,99.90
2018-06-03T21:47:32.438Z,99.90
2018-06-03T21:50:01.098Z,99.90
2018-06-03T21:52:29.722Z,99.90
2018-06-03T21:54:58.401Z,99.90
2018-06-03T21:57:27.021Z,99.90
2018-06-03T21:59:55.712Z,99.90
2018-06-03T22:02:24.427Z,99.90
2018-06-03T22:04:53.050Z,99.90
2018-06-03T22:07:21.720Z,99.90
2018-06-03T22:09:50.405Z,99.90
2018-06-03T22:12:19.043Z,99.90
2018-06-03T22:14:47.709Z,99.90
2018-06-03T22:17:34.301Z,99.90
2018-06-03T22:25:55.733Z,99.90
2018-06-03T22:28:24.408Z,99.90
2018-06-03T22:30:53.031Z,99.90
2018-06-03T22:33:21.698Z,99.90
2018-06-03T22:35:50.388Z,99.90
2018-06-03T22:38:19.052Z,99.90
2018-06-03T22:40:47.652Z,99.90
2018-06-03T22:43:16.330Z,99.90
2018-06-03T22:45:44.978Z,99.90
2018-06-03T22:48:13.623Z,99.90
2018-06-03T22:50:42.289Z,99.90
2018-06-03T22:53:10.972Z,99.90
2018-06-03T22:58:35.966Z,99.90
2018-06-03T23:01:04.649Z,99.90
2018-06-03T23:03:33.295Z,99.90
2018-06-03T23:06:07.932Z,99.90
2018-06-03T23:08:36.584Z,99.90
2018-06-03T23:11:05.214Z,99.90
2018-06-03T23:13:33.886Z,99.90
2018-06-03T23:16:02.552Z,99.90
2018-06-03T23:18:31.216Z,99.90
2018-06-03T23:20:59.874Z,99.90
2018-06-03T23:23:28.512Z,99.90
2018-06-03T23:26:09.886Z,99.90
2018-06-03T23:28:38.580Z,99.90
2018-06-03T23:31:07.250Z,99.90
2018-06-03T23:33:35.919Z,99.90
2018-06-03T23:36:04.545Z,99.90
2018-06-03T23:38:33.264Z,99.90
2018-06-03T23:41:01.906Z,99.90
2018-06-03T23:43:30.557Z,99.90
2018-06-03T23:45:59.250Z,99.90
2018-06-03T23:48:34.374Z,99.90
2018-06-03T23:51:03.058Z,99.90
2018-06-03T23:53:31.768Z,99.90
2018-06-03T23:56:00.417Z,99.90
2018-06-03T23:58:29.065Z,99.90
